Cresaptown, Maryland
Current Conditions -  °F | °C
As of 12:41 AM on Sunday 26 Oct 2014 (Local Time) from KCBE Reporting Station
Clear Clear  
Wind Chill: 64°   Ceiling: Unl
Heat Index: 64°   Visibility: 10mi
Dew Point: 46°   Wind: 13mph
Humidity: 52%   Direction: 310°NW
Pressure: 29.77"   Gusts: 23mph
Location:  39.5925°N, 78.8338°W
Report Text: KCBE 260441Z AUTO 31011G20KT 281V041 10SM CLR 18/08 A2977 RMK AO1
Loading
Personal Weather Stations






























Interactive Weather Map
Tropical Storm Tracking
New forecast layout! Learn more

10-Day Weather Forecast

Advertisements
Track Severe Weather on mobile